Pattimura Airport, Ambon
WAPP : now visible

Airfield :











YOU CAN JOIN US ON...

 
LOGIN :

Register | Disclaimer

   EN    FR    IT 

 









Legend :    VFR   Marginal VFR   IFR   Intensive IFR   Very Intensive IFR
Visi :
Ceiling :
>= 8 km
>= 3000ft
5 to 8 km
1000 to 3000 ft
1500m to 5 km
500 to 1000 ft
800 to 1500m
200 to 500 ft
< 800m
< 200 ft
Symbols :   Thunderstorms  Fog  Heavy snow  Heavy precipitations  Wind > 20 kt






- Airport Elevation : 33 ft
- IATA code : AMQ


WAPP - Pattimura , Ambon

CURRENT METAR :
  • 122100Z 36004KT 9999 SCT017 25/24 Q1010 NOSIG

EXPIRED METARs :
  • 122030Z 34007KT 9999 SCT017 25/24 Q1010 NOSIG
  • 122000Z 34005KT 8000 -RA SCT017 26/24 Q1012 NOSIG
  • 121930Z 35007KT 8000 -RA SCT017 26/24 Q1012 NOSIG
  • 121900Z 34006KT 8000 -RA SCT017 26/24 Q1012 NOSIG
  • 121830Z 35006KT 8000 -RA SCT017 26/24 Q1012 NOSIG

TAF TAF WAPP
Valid from the 12 at 18:00 until the 13 at 18:00 UTC


121700Z 1218/1318 34006KT 9999 SCT018
WAAF FIR / Asia



MET'MAP, your aeronautical weather chart ! - Copyright ORBIFLY December 2007 - Disclaimer

ORBIFLY MET'MAP TEAM :

Programming & Development : Alexandra Zaïnal
Concept & original design : Baudouin d'Aumeries
Assistance for programming : Marc-Olivier Méhu
Technical & hardware support : Manuel Goepfert

Contact : metmap@orbifly.com




SOURCES & CREDITS :

   NOAA       Earth
Advisory